Tiempo atmosférico en la estación meteorológica de Lalastra, Araba/Álava (910 m.)



Fecha
DESCASC
Temp. máxima en grados centígrados (hora)
DESCASC
Temp. mínima en grados centígrados (hora)
DESCASC
Temp. media en grados centígrados
DESCASC
Racha de viento máxima en m/sg (hora)
DESCASC
Velocidad máxima media en intervalos de 10 minutos(hora)
DESCASC
Precipitaciones diarias en mm
DESCASC
Precipitaciones de 00:00 a 06:00 en mm
DESCASC
Precipitaciones de 06:00 a 12:00 en mm
DESCASC
Precipitaciones de 12:00 a 18:00 en mm
DESCASC
Precipitaciones de 18:00 a 24:00 en mm
DESCASC
01-10-2020 16.3 (16:30) 8.8 (00:00) 12.5 14.72 (23:40) 6.67 (23:40) 0.6 0 0.6 0 0
02-10-2020 13.2 (00:00) 4.3 (00:00) 8.8 18.89 (00:10) 8.61 (00:10) 27.2 13 10.4 0 3.8
03-10-2020 11.7 (16:20) 3.5 (00:00) 7.6 13.61 (12:20) 8.33 (12:20) 20.4 7.2 13 0.2 0
04-10-2020 11.3 (17:30) 6.1 (00:00) 8.7 11.39 (13:20) 6.67 (13:20) 7.6 0 7.6 0 0
05-10-2020 16.4 (16:40) 6 (00:00) 11.2 7.5 (15:40) 3.89 (15:00) 2.2 0.8 1.2 0.2 0
06-10-2020 19.6 (16:50) 10.3 (00:00) 15 11.94 (10:50) 7.5 (10:50) 0 0 0 0 0
07-10-2020 19.5 (16:40) 10.7 (00:00) 15.1 10 (06:00) 5.56 (06:00) 0 0 0 0 0
08-10-2020 21.2 (14:30) 10.2 (00:00) 15.7 5 (12:50) 2.78 (12:50) 0 0 0 0 0
09-10-2020 17.4 (14:00) 7.3 (00:00) 12.3 6.94 (20:20) 2.78 (20:20) 0 0 0 0 0
10-10-2020 12.5 (16:00) 7.1 (00:00) 9.8 9.44 (12:00) 4.72 (11:10) 3.2 0.2 1.8 0 1.2
11-10-2020 10.1 (15:50) 5.3 (00:00) 7.7 10.83 (00:40) 5.56 (00:40) 5 2.2 1.2 0.6 1
12-10-2020 13.3 (15:40) 5.4 (00:00) 9.4 8.33 (22:10) 4.17 (22:10) 4 1.8 0.2 0 2
13-10-2020 11.7 (16:00) 5.8 (00:00) 8.8 7.22 (18:20) 3.06 (00:30) 4.4 1.8 0.8 1.8 0
14-10-2020 7.8 (12:00) 4.5 (00:00) 6.2 10.28 (13:20) 4.72 (12:10) 24.8 1.6 5.6 12.2 5.4
15-10-2020 6.9 (13:00) 2.6 (00:00) 4.8 7.78 (11:10) 4.17 (11:10) 6.6 1.2 3 1.8 0.6
16-10-2020 8.8 (17:20) 1 (00:00) 4.9 4.44 (07:00) 2.22 (11:00) 0.6 0.6 0 0 0
17-10-2020 14.6 (15:40) 0.2 (00:00) 7.4 7.78 (12:20) 3.61 (12:20) 0 0 0 0 0
18-10-2020 18 (15:50) 2.7 (00:00) 10.4 5.83 (14:10) 2.22 (12:40) 0 0 0 0 0
19-10-2020 19.3 (16:40) 2.8 (00:00) 11 11.39 (20:50) 5.28 (21:10) 0 0 0 0 0
20-10-2020 17 (00:00) 10.6 (00:00) 13.8 16.39 (20:30) 6.39 (01:30) 31.6 0.8 7.8 5.4 17.6
21-10-2020 13.9 (16:50) 10.5 (00:00) 12.2 15.83 (07:50) 6.94 (02:30) 44 33.4 4.6 6 0
22-10-2020 17.2 (14:50) 9.7 (00:00) 13.5 9.72 (15:40) 4.72 (05:40) 5.6 2.2 0 3 0.4
23-10-2020 12.7 (15:20) 5.6 (00:00) 9.1 9.17 (06:20) 4.44 (11:10) 9.2 8 0 0.8 0.4
24-10-2020 10.9 (23:30) 4.2 (00:00) 7.5 15.28 (16:10) 7.78 (13:20) 0 0 0 0 0
25-10-2020 11 (13:10) 4.1 (00:00) 7.5 22.5 (02:00) 11.11 (01:50) 17.6 0.4 2.2 9.8 5.2
26-10-2020 9.4 (15:50) 1.2 (00:00) 5.3 9.17 (11:50) 5 (11:50) 0.8 0 0 0.8 0
27-10-2020 10.4 (13:30) 2.2 (00:00) 6.3 17.22 (22:10) 8.33 (15:00) 0.4 0 0.2 0.2 0
28-10-2020 14.9 (16:40) 5.1 (00:00) 10 11.67 (01:20) 3.61 (01:20) 0.6 0 0.6 0 0
29-10-2020 16.2 (15:30) 2.6 (00:00) 9.4 8.89 (12:40) 3.61 (12:40) 0 0 0 0 0
30-10-2020 17.8 (15:10) 8.7 (00:00) 13.2 14.17 (12:30) 7.78 (12:30) 0 0 0 0 0

Gráficas

Temp. máximas Temp. mínimas Temp. medias Precipitaciones Rachas de viento máximas Velocidades máximas media en intervalos de 10 minutos

Datos horarios

Fecha y hora oficial Temperatura (ºC) Velocidad del viento (km/h) Dirección del viento Racha (km/h) Dirección de racha Precipitación (mm) Presión (hPa) Tendencia (hPa) Humedad (%)
2020-10-30 23:00:00 12.8 19 Sudoeste 38 Sudoeste 0 -- -- 79
2020-10-30 22:00:00 12.4 15 Sudoeste 41 Sur 0 -- -- 83
2020-10-30 21:00:00 12.1 11 Sudoeste 30 Sur 0 -- -- 83
2020-10-30 20:00:00 12.4 16 Sudoeste 33 Sur 0 -- -- 77
2020-10-30 19:00:00 12.8 16 Sudoeste 30 Sur 0 -- -- 74
2020-10-30 18:00:00 13.4 7 Sudoeste 20 Sudoeste 0 -- -- 73
2020-10-30 17:00:00 16.1 5 Sudoeste 32 Sur 0 -- -- 63
2020-10-30 16:00:00 17.1 17 Sudoeste 32 Sur 0 -- -- 59
2020-10-30 15:00:00 17.7 4 Sur 30 Oeste 0 -- -- 60
2020-10-30 14:00:00 17 16 Sudoeste 33 Sudoeste 0 -- -- 64
2020-10-30 13:00:00 15.6 18 Sudoeste 51 Sudoeste 0 -- -- 68
2020-10-30 12:00:00 14.5 21 Sudoeste 40 Sudoeste 0 -- -- 74
2020-10-30 11:00:00 13.3 20 Sudoeste 42 Sudoeste 0 -- -- 76
2020-10-30 10:00:00 12.6 12 Sudoeste 31 Oeste 0 -- -- 79
2020-10-30 09:00:00 10.5 13 Sudoeste 42 Sudoeste 0 -- -- 85
2020-10-30 08:00:00 9.8 13 Sudoeste 34 Sudoeste 0 -- -- 87
2020-10-30 07:00:00 9.8 11 Sudoeste 27 Sudoeste 0 -- -- 86
2020-10-30 06:00:00 10.3 7 Sudoeste 34 Sur 0 -- -- 84
2020-10-30 05:00:00 10.5 14 Sudoeste 35 Sudoeste 0 -- -- 83
2020-10-30 04:00:00 10 12 Sudoeste 34 Sudoeste 0 -- -- 86
2020-10-30 03:00:00 9.5 6 Sudoeste 24 Sudoeste 0 -- -- 86
2020-10-30 02:00:00 8.8 3 Norte 12 Sudoeste 0 -- -- 88
2020-10-30 01:00:00 9.6 6 Sudoeste 24 Oeste 0 -- -- 88
2020-10-30 00:00:00 9.5 4 Noroeste 19 Oeste 0 -- -- 87
2020-10-29 23:00:00 9.3 3 Nordeste 20 Sudoeste 0 -- -- 87
2020-10-29 22:00:00 9.7 5 Sudoeste 14 Sur 0 -- -- 86
2020-10-29 21:00:00 9.5 2 Este 23 Sudoeste 0 -- -- 84
2020-10-29 20:00:00 8.7 3 Este 12 Oeste 0 -- -- 88
2020-10-29 19:00:00 9.3 3 Este 9 Sudeste 0 -- -- 84
2020-10-29 18:00:00 12.5 3 Sur 12 Sudeste 0 -- -- 75
2020-10-29 17:00:00 15 5 Sur 22 Oeste 0 -- -- 66
2020-10-29 16:00:00 16.2 9 Sudoeste 21 Sur 0 -- -- 64
2020-10-29 15:00:00 15.8 6 Sudoeste 19 Sudoeste 0 -- -- 66
2020-10-29 14:00:00 14.8 8 Sur 27 Sudoeste 0 -- -- 69
2020-10-29 13:00:00 13.4 11 Sudoeste 32 Sur 0 -- -- 75
2020-10-29 12:00:00 12.1 12 Sudoeste 30 Sudoeste 0 -- -- 80
2020-10-29 11:00:00 11.2 4 Este 23 Sur 0 -- -- 79
2020-10-29 10:00:00 9.3 5 Sur 15 Este 0 -- -- 96
2020-10-29 09:00:00 5.6 6 Sur 15 Sur 0 -- -- 100
2020-10-29 08:00:00 4.3 3 Este 9 Este 0 -- -- 100
2020-10-29 07:00:00 5.7 5 Este 15 Sudeste 0 -- -- 100
2020-10-29 06:00:00 2.7 0 Calma 5 Oeste 0 -- -- 99
2020-10-29 05:00:00 3.4 2 Nordeste 4 Nordeste 0 -- -- 99
2020-10-29 04:00:00 3.5 2 Este 5 Nordeste 0 -- -- 99
2020-10-29 03:00:00 3.9 0 Calma 4 Este 0 -- -- 98
2020-10-29 02:00:00 4.2 0 Calma 5 Norte 0 -- -- 97
2020-10-29 01:00:00 4.7 0 Calma 4 Nordeste 0 -- -- 97
2020-10-29 00:00:00 5.1 0 Calma 6 Nordeste 0 -- -- 96
2020-10-28 23:00:00 6.4 0 Calma 4 Noroeste 0 -- -- 94
2020-10-28 22:00:00 7.8 2 Este 5 Nordeste 0 -- -- 96
2020-10-28 21:00:00 7.9 0 Calma 5 Sur 0 -- -- 91
2020-10-28 20:00:00 9.8 0 Calma 6 Sudeste 0 -- -- 91
2020-10-28 19:00:00 10 0 Calma 14 Nordeste 0 -- -- 90
2020-10-28 18:00:00 11.4 8 Nordeste 23 Nordeste 0 -- -- 85
2020-10-28 17:00:00 14.5 4 Noroeste 19 Oeste 0 -- -- 68
2020-10-28 16:00:00 14.1 10 Oeste 18 Oeste 0 -- -- 69
2020-10-28 15:00:00 14.5 8 Noroeste 18 Oeste 0 -- -- 68
2020-10-28 14:00:00 14.6 5 Sudeste 18 Oeste 0 -- -- 67
2020-10-28 13:00:00 13.5 6 Sudoeste 23 Sudoeste 0 -- -- 74
2020-10-28 12:00:00 12.5 5 Sudoeste 13 Sur 0.2 -- -- 93
2020-10-28 11:00:00 10.8 6 Sur 11 Sudoeste 0.4 -- -- 96
2020-10-28 10:00:00 10.3 2 Sur 8 Sur 0 -- -- 96
2020-10-28 09:00:00 10 0 Calma 9 Noroeste 0 -- -- 95
2020-10-28 08:00:00 9.8 5 Noroeste 18 Noroeste 0 -- -- 95
2020-10-28 07:00:00 9.6 5 Sudoeste 28 Noroeste 0 -- -- 95
2020-10-28 06:00:00 9.6 7 Sudoeste 25 Sudoeste 0 -- -- 94
2020-10-28 05:00:00 9.5 6 Sur 17 Sur 0 -- -- 95
2020-10-28 04:00:00 9.5 7 Sudoeste 24 Sur 0 -- -- 94
2020-10-28 03:00:00 9.7 9 Noroeste 33 Noroeste 0 -- -- 93
2020-10-28 02:00:00 9.5 7 Sudoeste 42 Sur 0 -- -- 95
2020-10-28 01:00:00 9.4 6 Oeste 30 Sur 0 -- -- 94
2020-10-28 00:00:00 9.2 14 Sur 39 Sur 0 -- -- 94
2020-10-27 23:00:00 9.1 19 Sudoeste 62 Sudoeste 0 -- -- 94
2020-10-27 22:00:00 9.1 25 Sudoeste 42 Sudoeste 0 -- -- 93
2020-10-27 21:00:00 9 24 Sudoeste 46 Sur 0 -- -- 93
2020-10-27 20:00:00 9 25 Sudoeste 54 Sudoeste 0 -- -- 92
2020-10-27 19:00:00 9.1 19 Sudoeste 45 Sudoeste 0 -- -- 90
2020-10-27 18:00:00 9.5 19 Sudoeste 59 Sudoeste 0 -- -- 86
2020-10-27 17:00:00 9.3 27 Sudoeste 55 Sudoeste 0 -- -- 87
2020-10-27 16:00:00 8.8 26 Sudoeste 53 Sudoeste 0.2 -- -- 90
2020-10-27 15:00:00 9.4 30 Sudoeste 50 Sudoeste 0 -- -- 84
2020-10-27 14:00:00 9.6 19 Sudoeste 47 Sur 0 -- -- 83
2020-10-27 13:00:00 10 24 Sudoeste 45 Sudoeste 0 -- -- 81
2020-10-27 12:00:00 8.6 9 Oeste 42 Oeste 0 -- -- 85
2020-10-27 11:00:00 7.4 19 Sudoeste 42 Sudoeste 0 -- -- 87
2020-10-27 10:00:00 6.6 16 Sudoeste 37 Sudoeste 0 -- -- 90
2020-10-27 09:00:00 5.9 20 Sudoeste 43 Sur 0 -- -- 92
2020-10-27 08:00:00 5.3 8 Sudoeste 32 Sur 0.2 -- -- 93
2020-10-27 07:00:00 5.2 13 Sudoeste 31 Sudoeste 0 -- -- 92
2020-10-27 06:00:00 5 6 Sudoeste 23 Sudoeste 0 -- -- 93
2020-10-27 05:00:00 4.9 11 Sudoeste 27 Sudoeste 0 -- -- 93
2020-10-27 04:00:00 4.4 10 Sudoeste 21 Sudoeste 0 -- -- 93
2020-10-27 03:00:00 3.9 6 Sudoeste 16 Sudoeste 0 -- -- 97
2020-10-27 02:00:00 3.3 4 Oeste 11 Sudoeste 0 -- -- 99
2020-10-27 01:00:00 3 2 Sudeste 7 Sudeste 0 -- -- 98
2020-10-27 00:00:00 2.2 3 Nordeste 6 Noroeste 0 -- -- 96
2020-10-26 23:00:00 2.7 3 Sudeste 5 Sudeste 0 -- -- 96
2020-10-26 22:00:00 3.5 3 Este 5 Este 0 -- -- 96
2020-10-26 21:00:00 3.3 0 Calma 6 Este 0 -- -- 94
2020-10-26 20:00:00 4.2 0 Calma 6 Oeste 0 -- -- 91
2020-10-26 19:00:00 5.6 6 Oeste 14 Oeste 0 -- -- 87
2020-10-26 18:00:00 7.3 5 Oeste 18 Oeste 0 -- -- 80
2020-10-26 17:00:00 8.6 10 Noroeste 18 Noroeste 0 -- -- 75
2020-10-26 16:00:00 9.1 13 Noroeste 26 Noroeste 0 -- -- 74
2020-10-26 15:00:00 8 15 Oeste 29 Oeste 0.6 -- -- 85
2020-10-26 14:00:00 8.5 12 Oeste 26 Noroeste 0.2 -- -- 77
2020-10-26 13:00:00 8.3 10 Oeste 30 Oeste 0 -- -- 76
2020-10-26 12:00:00 8.2 18 Oeste 33 Oeste 0 -- -- 78
2020-10-26 11:00:00 6.6 14 Oeste 30 Oeste 0 -- -- 83
2020-10-26 10:00:00 6.4 11 Oeste 26 Oeste 0 -- -- 85
2020-10-26 09:00:00 4.1 12 Oeste 28 Noroeste 0 -- -- 92
2020-10-26 08:00:00 3 12 Oeste 26 Oeste 0 -- -- 95
2020-10-26 07:00:00 2.6 12 Oeste 22 Noroeste 0 -- -- 99
2020-10-26 06:00:00 2.2 3 Oeste 11 Sudeste 0 -- -- 98
2020-10-26 05:00:00 2.6 8 Sudoeste 13 Sudoeste 0 -- -- 100
2020-10-26 04:00:00 1.2 0 Calma 6 Este 0 -- -- 98
2020-10-26 03:00:00 1.9 3 Este 5 Nordeste 0 -- -- 97
2020-10-26 02:00:00 3.2 2 Oeste 12 Sudoeste 0 -- -- 95
2020-10-26 01:00:00 4 6 Oeste 23 Oeste 0 -- -- 96
2020-10-26 00:00:00 4.1 6 Oeste 17 Oeste 0.2 -- -- 96
2020-10-25 23:00:00 4.4 5 Noroeste 26 Noroeste 2.4 -- -- 95
2020-10-25 22:00:00 5.9 5 Nordeste 13 Norte 0.4 -- -- 97
2020-10-25 21:00:00 6 2 Sur 10 Sur 0 -- -- 97
2020-10-25 20:00:00 6.3 2 Norte 17 Noroeste 2.2 -- -- 96
2020-10-25 19:00:00 7.4 6 Norte 18 Noroeste 0 -- -- 95
2020-10-25 18:00:00 8.6 0 Calma 18 Noroeste 1.8 -- -- 96
2020-10-25 17:00:00 9.5 4 Oeste 22 Oeste 5.2 -- -- 96
2020-10-25 16:00:00 10.2 8 Oeste 18 Noroeste 1.8 -- -- 94
2020-10-25 15:00:00 10.2 9 Noroeste 26 Oeste 0.2 -- -- 92
2020-10-25 14:00:00 11 10 Oeste 32 Sur 0.8 -- -- 94
2020-10-25 13:00:00 10.9 7 Sur 41 Sudeste 0 -- -- 92
2020-10-25 12:00:00 10.3 16 Sudeste 43 Sur 0.4 -- -- 92
2020-10-25 11:00:00 9.5 12 Sur 37 Sur 0.8 -- -- 94
2020-10-25 10:00:00 9.5 13 Sur 50 Sudeste 0.6 -- -- 93
2020-10-25 09:00:00 9.8 15 Sur 53 Sudeste 0.2 -- -- 90
2020-10-25 08:00:00 9.6 12 Sur 48 Sur 0.2 -- -- 91
2020-10-25 07:00:00 9.8 15 Sur 47 Sur 0 -- -- 86
2020-10-25 06:00:00 10.1 17 Sur 55 Sudoeste 0 -- -- 83
2020-10-25 05:00:00 9.8 22 Sur 45 Sur 0 -- -- 86
2020-10-25 04:00:00 9.6 18 Sur 41 Sur 0.4 -- -- 89
2020-10-25 03:00:00 9.9 18 Sudoeste 62 Sudoeste 0 -- -- 86
2020-10-25 02:00:00 10 23 Sur 61 Sur 0 -- -- 86
2020-10-25 01:00:00 10.7 32 Sur 72 Sur 0 -- -- 82
2020-10-25 00:00:00 10.8 17 Sudeste 48 Sudeste 0 -- -- 81
2020-10-24 23:00:00 10.6 7 Sudeste 39 Este 0 -- -- 82
2020-10-24 22:00:00 10.3 8 Sur 34 Sur 0 -- -- 83
2020-10-24 21:00:00 10.3 15 Sur 36 Sudeste 0 -- -- 83
2020-10-24 20:00:00 10.1 8 Sudeste 32 Sudeste 0 -- -- 84
2020-10-24 19:00:00 9.9 10 Sudoeste 41 Sur 0 -- -- 86
2020-10-24 18:00:00 9.9 16 Sudoeste 30 Sur 0 -- -- 85
2020-10-24 17:00:00 9.6 20 Sudoeste 55 Sudoeste 0 -- -- 85
2020-10-24 16:00:00 9.3 25 Sudoeste 54 Sur 0 -- -- 84
2020-10-24 15:00:00 9.4 24 Sudoeste 50 Sur 0 -- -- 82
2020-10-24 14:00:00 8.7 18 Sudoeste 51 Sudoeste 0 -- -- 84
2020-10-24 13:00:00 7.7 14 Sudoeste 49 Sudoeste 0 -- -- 87
2020-10-24 12:00:00 7.6 24 Sudoeste 48 Sur 0 -- -- 87
2020-10-24 11:00:00 6.9 15 Sudoeste 49 Sudoeste 0 -- -- 89
2020-10-24 10:00:00 6.6 24 Sudoeste 44 Sudoeste 0 -- -- 91
2020-10-24 09:00:00 6.2 23 Sudoeste 46 Sudoeste 0 -- -- 93
2020-10-24 08:00:00 6.2 26 Sudoeste 44 Sudoeste 0 -- -- 92
2020-10-24 07:00:00 6.2 16 Sudoeste 32 Sudoeste 0 -- -- 91
2020-10-24 06:00:00 6.8 14 Sudoeste 35 Sudoeste 0 -- -- 89
2020-10-24 05:00:00 7.1 21 Sudoeste 42 Sudoeste 0 -- -- 87
2020-10-24 04:00:00 7 16 Sudoeste 31 Sudoeste 0 -- -- 90
2020-10-24 03:00:00 5.6 9 Sudoeste 19 Sudoeste 0 -- -- 99
2020-10-24 02:00:00 4.3 3 Oeste 10 Sudoeste 0 -- -- 98
2020-10-24 01:00:00 5 0 Calma 5 Nordeste 0 -- -- 97
2020-10-24 00:00:00 5.6 2 Nordeste 7 Norte 0 -- -- 97
2020-10-23 23:00:00 6.4 3 Este 6 Oeste 0 -- -- 95
2020-10-23 22:00:00 7.8 2 Sudoeste 10 Noroeste 0 -- -- 94
2020-10-23 21:00:00 8.4 0 Calma 4 Norte 0 -- -- 95
2020-10-23 20:00:00 8.8 0 Calma 14 Oeste 0.2 -- -- 92
2020-10-23 19:00:00 9.9 2 Oeste 14 Oeste 0.2 -- -- 92
2020-10-23 18:00:00 10.4 4 Noroeste 13 Sudoeste 0.6 -- -- 88
2020-10-23 17:00:00 11.5 6 Sudoeste 27 Sudoeste 0.2 -- -- 78
2020-10-23 16:00:00 12.6 8 Sudoeste 25 Sur 0 -- -- 70
2020-10-23 15:00:00 12.5 10 Sudoeste 23 Sur 0 -- -- 71
2020-10-23 14:00:00 11.4 8 Oeste 27 Sur 0 -- -- 78
2020-10-23 13:00:00 11.8 11 Sudoeste 30 Noroeste 0 -- -- 77
2020-10-23 12:00:00 9.9 10 Oeste 29 Sur 0 -- -- 87
2020-10-23 11:00:00 9.6 14 Sudoeste 30 Sudoeste 0 -- -- 85
2020-10-23 10:00:00 9 8 Sur 24 Sudoeste 0 -- -- 90
2020-10-23 09:00:00 8.4 9 Sur 26 Sur 0 -- -- 94
2020-10-23 08:00:00 8.6 13 Sur 23 Sur 0 -- -- 94
2020-10-23 07:00:00 9.1 8 Sudoeste 33 Sur 0 -- -- 95
2020-10-23 06:00:00 9.3 11 Sur 25 Sur 0 -- -- 95
2020-10-23 05:00:00 9.5 9 Sur 25 Sur 1.4 -- -- 95
2020-10-23 04:00:00 9.7 8 Sur 31 Sur 1.6 -- -- 95
2020-10-23 03:00:00 9.9 4 Sur 21 Sudoeste 4.6 -- -- 94
2020-10-23 02:00:00 10.4 6 Sur 21 Sudoeste 0.4 -- -- 92
2020-10-23 01:00:00 10.1 6 Sudoeste 21 Sur 0 -- -- 92
2020-10-23 00:00:00 10.2 9 Sudoeste 20 Sudoeste 0 -- -- 91
2020-10-22 23:00:00 10.5 8 Sudoeste 18 Sur 0 -- -- 89
2020-10-22 22:00:00 10.5 7 Sur 20 Sudoeste 0 -- -- 91
2020-10-22 21:00:00 10.7 10 Sudoeste 17 Sudoeste 0 -- -- 91
2020-10-22 20:00:00 11.5 8 Sudoeste 25 Sur 0.4 -- -- 89
2020-10-22 19:00:00 12.4 5 Sudoeste 20 Sudoeste 0 -- -- 86
2020-10-22 18:00:00 13.4 8 Sudoeste 21 Sur 0 -- -- 83
2020-10-22 17:00:00 13.4 6 Sudoeste 16 Sudoeste 0 -- -- 88
2020-10-22 16:00:00 12.2 10 Sudoeste 35 Sudoeste 3 -- -- 87
2020-10-22 15:00:00 16.7 10 Sur 23 Sudoeste 0 -- -- 68
2020-10-22 14:00:00 16 6 Sudoeste 21 Sur 0 -- -- 74
2020-10-22 13:00:00 15.4 5 Sur 22 Sudoeste 0 -- -- 73
2020-10-22 12:00:00 13.7 6 Sudoeste 15 Sudoeste 0 -- -- 81
2020-10-22 11:00:00 11.9 2 Sur 13 Sur 0 -- -- 87
2020-10-22 10:00:00 10.7 0 Calma 15 Sur 0 -- -- 92
2020-10-22 09:00:00 10.7 5 Sur 26 Sudoeste 0 -- -- 87
2020-10-22 08:00:00 10.3 10 Sur 28 Sur 0 -- -- 89
2020-10-22 07:00:00 10.4 6 Sur 31 Sudoeste 0 -- -- 90
2020-10-22 06:00:00 10.3 15 Sudoeste 33 Sur 0 -- -- 89
2020-10-22 05:00:00 9.7 8 Sudeste 21 Sur 0 -- -- 90
2020-10-22 04:00:00 10.1 8 Sur 28 Sur 2.2 -- -- 92
2020-10-22 03:00:00 11 15 Sur 31 Sur 0 -- -- 86
2020-10-22 02:00:00 11.7 10 Sur 34 Sur 0 -- -- 79
2020-10-22 01:00:00 11.9 12 Sur 33 Sur 0 -- -- 77
2020-10-22 00:00:00 12 13 Sur 38 Sudoeste 0 -- -- 78
2020-10-21 23:00:00 12.1 12 Sur 43 Sur 0 -- -- 77
2020-10-21 22:00:00 12 13 Sur 39 Sur 0 -- -- 78
2020-10-21 21:00:00 11.8 15 Sur 43 Sudoeste 0 -- -- 78
2020-10-21 20:00:00 11.3 15 Sudoeste 37 Sudoeste 0 -- -- 82
2020-10-21 19:00:00 11.1 10 Sur 28 Sudeste 0 -- -- 87
2020-10-21 18:00:00 11.5 10 Oeste 36 Sudoeste 5.6 -- -- 88
2020-10-21 17:00:00 13.9 8 Sur 26 Sur 0 -- -- 80
2020-10-21 16:00:00 13.6 13 Sur 29 Sur 0 -- -- 80
2020-10-21 15:00:00 12.6 11 Sur 30 Sudoeste 0 -- -- 86
2020-10-21 14:00:00 12 15 Sur 40 Sur 0.2 -- -- 88
2020-10-21 13:00:00 11.4 16 Sur 42 Sur 0.2 -- -- 93
2020-10-21 12:00:00 11 15 Sur 45 Sudoeste 2.6 -- -- 94
2020-10-21 11:00:00 11 16 Sur 41 Sudoeste 0.6 -- -- 93
2020-10-21 10:00:00 10.9 12 Sudoeste 41 Sudoeste 0.4 -- -- 91
2020-10-21 09:00:00 10.6 18 Sur 47 Sudeste 0.6 -- -- 93
2020-10-21 08:00:00 10.8 19 Sur 57 Sur 0.2 -- -- 92
2020-10-21 07:00:00 11.2 17 Sur 54 Sudeste 0.2 -- -- 89
2020-10-21 06:00:00 11.1 18 Sur 53 Sudeste 3.2 -- -- 93
2020-10-21 05:00:00 11.9 21 Sur 55 Sudeste 0 -- -- 88
2020-10-21 04:00:00 11.5 23 Sur 55 Sur 0.2 -- -- 91
2020-10-21 03:00:00 11.7 13 Sur 56 Sur 7 -- -- 92
2020-10-21 02:00:00 12.7 13 Sudoeste 48 Sur 20 -- -- 95
2020-10-21 01:00:00 13.8 13 Sudeste 49 Sur 3 -- -- 86
2020-10-21 00:00:00 13.7 14 Sur 51 Sur 1.6 -- -- 86
2020-10-20 23:00:00 12.9 11 Sudeste 38 Sudeste 3.4 -- -- 89
2020-10-20 22:00:00 13 16 Sudeste 55 Sudeste 3.6 -- -- 88
2020-10-20 21:00:00 13.5 8 Sur 59 Sudeste 2.4 -- -- 87
2020-10-20 20:00:00 13 8 Sudeste 40 Este 5 -- -- 89
2020-10-20 19:00:00 12.9 12 Sudeste 27 Sudeste 1.6 -- -- 87
2020-10-20 18:00:00 12.5 6 Sur 31 Sudeste 1.2 -- -- 91
2020-10-20 17:00:00 13.1 11 Sudeste 32 Sur 0.8 -- -- 89
2020-10-20 16:00:00 12.9 5 Sudeste 28 Este 0.8 -- -- 93
2020-10-20 15:00:00 12.8 4 Sur 16 Sur 1.4 -- -- 92
2020-10-20 14:00:00 12.9 4 Sudeste 24 Sudeste 0.6 -- -- 92
2020-10-20 13:00:00 12.7 9 Sudeste 19 Sur 0.6 -- -- 92
2020-10-20 12:00:00 11.7 8 Sudoeste 28 Sudoeste 0.2 -- -- 95
2020-10-20 11:00:00 10.9 3 Sudeste 9 Este 0.8 -- -- 97
2020-10-20 10:00:00 10.6 0 Calma 6 Este 0.8 -- -- 96
2020-10-20 09:00:00 10.6 3 Sur 8 Sur 2.6 -- -- 94
2020-10-20 08:00:00 10.9 5 Sur 18 Sudoeste 3 -- -- 91
2020-10-20 07:00:00 11.2 5 Este 24 Sudoeste 0.4 -- -- 87
2020-10-20 06:00:00 11.7 14 Sudoeste 41 Sur 0.6 -- -- 83
2020-10-20 05:00:00 12.4 7 Sur 23 Oeste 0.2 -- -- 77
2020-10-20 04:00:00 14.3 15 Sudoeste 31 Sur 0 -- -- 64
2020-10-20 03:00:00 15.9 18 Sudoeste 43 Sudoeste 0 -- -- 53
2020-10-20 02:00:00 15.8 16 Sudoeste 44 Sudoeste 0 -- -- 54
2020-10-20 01:00:00 16.9 20 Sudoeste 46 Sudoeste 0 -- -- 50
2020-10-20 00:00:00 17 13 Sudoeste 31 Sur 0 -- -- 47
2020-10-19 23:00:00 17 7 Sur 36 Sudoeste 0 -- -- 45
2020-10-19 22:00:00 17.7 13 Sudoeste 39 Sudoeste 0 -- -- 42
2020-10-19 21:00:00 18.6 17 Sur 41 Sur 0 -- -- 38
2020-10-19 20:00:00 18.8 13 Sur 36 Sur 0 -- -- 41
2020-10-19 19:00:00 17.2 6 Sudeste 22 Sudeste 0 -- -- 49
2020-10-19 18:00:00 18 5 Sudeste 27 Sur 0 -- -- 50
2020-10-19 17:00:00 19.1 10 Sur 33 Sur 0 -- -- 48
2020-10-19 16:00:00 18.9 12 Sudoeste 35 Sur 0 -- -- 48
2020-10-19 15:00:00 17.6 13 Sudoeste 28 Sur 0 -- -- 52
2020-10-19 14:00:00 16.7 6 Sur 26 Sudoeste 0 -- -- 51
2020-10-19 13:00:00 15.5 8 Sudoeste 23 Sudoeste 0 -- -- 56
2020-10-19 12:00:00 12.9 7 Este 14 Este 0 -- -- 67
2020-10-19 11:00:00 9.6 6 Sur 13 Sur 0 -- -- 75
2020-10-19 10:00:00 5.6 2 Sudeste 8 Sudeste 0 -- -- 96
2020-10-19 09:00:00 2.9 0 Calma 4 Nordeste 0 -- -- 98
2020-10-19 08:00:00 2.8 0 Calma 8 Este 0 -- -- 97
2020-10-19 07:00:00 3.1 0 Calma 5 Nordeste 0 -- -- 97
2020-10-19 06:00:00 3.3 2 Este 3 Este 0 -- -- 97
2020-10-19 05:00:00 3.7 2 Este 4 Este 0 -- -- 96
2020-10-19 04:00:00 4.3 0 Calma 4 Nordeste 0 -- -- 96
2020-10-19 03:00:00 4.5 0 Calma 5 Nordeste 0 -- -- 95
2020-10-19 02:00:00 5 0 Calma 4 Nordeste 0 -- -- 95
2020-10-19 01:00:00 5.2 0 Calma 5 Nordeste 0 -- -- 95
2020-10-19 00:00:00 5.4 0 Calma 6 Nordeste 0 -- -- 94
2020-10-18 23:00:00 5.8 3 Este 5 Este 0 -- -- 93
2020-10-18 22:00:00 6.8 3 Nordeste 6 Nordeste 0 -- -- 90
2020-10-18 21:00:00 7.9 0 Calma 6 Nordeste 0 -- -- 86
2020-10-18 20:00:00 9.8 0 Calma 4 Este 0 -- -- 81
2020-10-18 19:00:00 13.5 0 Calma 5 Oeste 0 -- -- 70
2020-10-18 18:00:00 16.7 0 Calma 13 Sur 0 -- -- 58
2020-10-18 17:00:00 17.3 3 Sur 14 Sur 0 -- -- 54
2020-10-18 16:00:00 17.8 4 Sudoeste 13 Oeste 0 -- -- 54
2020-10-18 15:00:00 17.6 4 Sur 21 Sudoeste 0 -- -- 52
2020-10-18 14:00:00 17.3 6 Sudoeste 14 Sudoeste 0 -- -- 55
2020-10-18 13:00:00 16.5 6 Sur 14 Sudoeste 0 -- -- 54
2020-10-18 12:00:00 14.2 5 Sur 15 Sur 0 -- -- 59
2020-10-18 11:00:00 9.2 0 Calma 3 Oeste 0 -- -- 97
2020-10-18 10:00:00 4.9 0 Calma 5 Este 0 -- -- 100
2020-10-18 09:00:00 2.9 0 Calma 4 Nordeste 0 -- -- 98
2020-10-18 08:00:00 2.9 0 Calma 4 Nordeste 0 -- -- 98
2020-10-18 07:00:00 2.9 0 Calma 5 Nordeste 0 -- -- 98
2020-10-18 06:00:00 2.9 0 Calma 4 Nordeste 0 -- -- 97
2020-10-18 05:00:00 3 0 Calma 4 Nordeste 0 -- -- 98
2020-10-18 04:00:00 2.8 0 Calma 4 Nordeste 0 -- -- 97
2020-10-18 03:00:00 2.7 0 Calma 3 Este 0 -- -- 96
2020-10-18 02:00:00 3.1 0 Calma 4 Nordeste 0 -- -- 95
2020-10-18 01:00:00 3.3 2 Este 4 Nordeste 0 -- -- 94
2020-10-18 00:00:00 3.6 0 Calma 5 Nordeste 0 -- -- 92
2020-10-17 23:00:00 4.1 0 Calma 4 Nordeste 0 -- -- 90
2020-10-17 22:00:00 4.7 0 Calma 5 Nordeste 0 -- -- 87
2020-10-17 21:00:00 6 2 Nordeste 5 Nordeste 0 -- -- 83
2020-10-17 20:00:00 8.1 2 Nordeste 5 Nordeste 0 -- -- 82
2020-10-17 19:00:00 11.9 0 Calma 8 Oeste 0 -- -- 73
2020-10-17 18:00:00 13.8 4 Oeste 17 Oeste 0 -- -- 57
2020-10-17 17:00:00 14.1 8 Noroeste 17 Oeste 0 -- -- 58
2020-10-17 16:00:00 14.6 8 Oeste 27 Oeste 0 -- -- 56
2020-10-17 15:00:00 14 10 Oeste 23 Noroeste 0 -- -- 65
2020-10-17 14:00:00 13 8 Oeste 21 Norte 0 -- -- 63
2020-10-17 13:00:00 11.4 6 Oeste 28 Oeste 0 -- -- 65
2020-10-17 12:00:00 9.7 9 Sudoeste 18 Oeste 0 -- -- 69
2020-10-17 11:00:00 7.9 4 Sudoeste 17 Sudoeste 0 -- -- 77
2020-10-17 10:00:00 4.6 3 Sudoeste 7 Oeste 0 -- -- 97
2020-10-17 09:00:00 2.3 3 Este 7 Este 0 -- -- 97
2020-10-17 08:00:00 2 4 Sudeste 8 Este 0 -- -- 99
2020-10-17 07:00:00 1.9 3 Este 6 Nordeste 0 -- -- 100
2020-10-17 06:00:00 1.6 4 Este 6 Este 0 -- -- 100
2020-10-17 05:00:00 0.8 0 Calma 6 Este 0 -- -- 99
2020-10-17 04:00:00 0.9 2 Este 5 Este 0 -- -- 99
2020-10-17 03:00:00 0.8 3 Este 5 Este 0 -- -- 100
2020-10-17 02:00:00 0.5 0 Calma 4 Nordeste 0 -- -- 98
2020-10-17 01:00:00 0.7 0 Calma 3 Este 0 -- -- 98
2020-10-17 00:00:00 1 0 Calma 4 Norte 0 -- -- 97
2020-10-16 23:00:00 1.5 2 Nordeste 4 Nordeste 0 -- -- 97
2020-10-16 22:00:00 2.2 0 Calma 4 Nordeste 0 -- -- 97
2020-10-16 21:00:00 2.5 0 Calma 4 Nordeste 0 -- -- 95
2020-10-16 20:00:00 4 2 Nordeste 4 Este 0 -- -- 92
2020-10-16 19:00:00 6.3 0 Calma 8 Sudeste 0 -- -- 89
2020-10-16 18:00:00 7.8 4 Este 13 Este 0 -- -- 80
2020-10-16 17:00:00 8.3 0 Calma 4 Norte 0 -- -- 84
2020-10-16 16:00:00 7.7 3 Nordeste 5 Nordeste 0 -- -- 84
2020-10-16 15:00:00 7.6 2 Nordeste 7 Noroeste 0 -- -- 83
2020-10-16 14:00:00 6.5 0 Calma 5 Noroeste 0 -- -- 88
2020-10-16 13:00:00 6.3 0 Calma 6 Este 0 -- -- 86
2020-10-16 12:00:00 6.2 3 Este 13 Norte 0 -- -- 86
2020-10-16 11:00:00 6.6 8 Norte 15 Norte 0 -- -- 87
2020-10-16 10:00:00 4.8 3 Norte 9 Norte 0 -- -- 100
2020-10-16 09:00:00 2.4 0 Calma 10 Norte 0 -- -- 98
2020-10-16 08:00:00 3.5 5 Norte 13 Noroeste 0 -- -- 99
2020-10-16 07:00:00 3.2 6 Norte 16 Noroeste 0 -- -- 100
2020-10-16 06:00:00 2.5 0 Calma 4 Sur 0 -- -- 99
2020-10-16 05:00:00 2.6 0 Calma 5 Nordeste 0 -- -- 98
2020-10-16 04:00:00 3 0 Calma 3 Nordeste 0 -- -- 99
2020-10-16 03:00:00 3.7 0 Calma 11 Noroeste 0 -- -- 98
2020-10-16 02:00:00 3.7 0 Calma 3 Este 0.6 -- -- 99
2020-10-16 01:00:00 2.8 2 Este 5 Norte 0 -- -- 99
2020-10-16 00:00:00 2.6 2 Nordeste 5 Este 0 -- -- 97
2020-10-15 23:00:00 3.6 3 Oeste 17 Noroeste 0.2 -- -- 96
2020-10-15 22:00:00 3.9 8 Norte 21 Norte 0.2 -- -- 97
2020-10-15 21:00:00 3.6 6 Norte 21 Noroeste 0 -- -- 94
2020-10-15 20:00:00 4 13 Norte 25 Norte 0.2 -- -- 94
2020-10-15 19:00:00 4.5 12 Norte 28 Norte 0 -- -- 92
2020-10-15 18:00:00 5 9 Noroeste 18 Norte 0.2 -- -- 93
2020-10-15 17:00:00 4.5 5 Nordeste 24 Nordeste 0.6 -- -- 93
2020-10-15 16:00:00 5.6 10 Norte 22 Norte 0 -- -- 91
2020-10-15 15:00:00 5.3 6 Noroeste 22 Norte 1 -- -- 95
2020-10-15 14:00:00 6.4 8 Norte 23 Noroeste 0 -- -- 88
2020-10-15 13:00:00 6.9 6 Noroeste 22 Norte 0 -- -- 94
2020-10-15 12:00:00 5 10 Norte 28 Norte 2 -- -- 97
2020-10-15 11:00:00 5.4 9 Norte 20 Noroeste 0.2 -- -- 97
2020-10-15 10:00:00 5 2 Norte 11 Norte 0 -- -- 98
2020-10-15 09:00:00 4.2 4 Noroeste 12 Norte 0 -- -- 99
2020-10-15 08:00:00 4.3 4 Noroeste 13 Oeste 0.8 -- -- 99
2020-10-15 07:00:00 4.5 2 Norte 8 Norte 0 -- -- 99
2020-10-15 06:00:00 4.5 2 Noroeste 6 Noroeste 0.2 -- -- 99
2020-10-15 05:00:00 4.1 0 Calma 5 Nordeste 0 -- -- 99
2020-10-15 04:00:00 3.7 0 Calma 4 Este 0 -- -- 98
2020-10-15 03:00:00 4.6 0 Calma 10 Oeste 0.2 -- -- 98
2020-10-15 02:00:00 4.8 3 Noroeste 12 Norte 0.2 -- -- 99
2020-10-15 01:00:00 4.9 7 Noroeste 14 Oeste 0.6 -- -- 99
2020-10-15 00:00:00 4.8 0 Calma 13 Nordeste 0 -- -- 98
2020-10-14 23:00:00 5.1 3 Norte 15 Norte 1.2 -- -- 98
2020-10-14 22:00:00 5.1 0 Calma 12 Noroeste 1.2 -- -- 99
2020-10-14 21:00:00 5 5 Noroeste 17 Norte 2 -- -- 98
2020-10-14 20:00:00 5.3 4 Noroeste 14 Noroeste 0.2 -- -- 98
2020-10-14 19:00:00 5.5 8 Noroeste 17 Noroeste 0.8 -- -- 97
2020-10-14 18:00:00 6 4 Norte 17 Noroeste 1.6 -- -- 97
2020-10-14 17:00:00 5.6 6 Norte 25 Noroeste 6 -- -- 96
2020-10-14 16:00:00 7 13 Noroeste 28 Oeste 1.2 -- -- 97
2020-10-14 15:00:00 6.5 12 Noroeste 22 Noroeste 1 -- -- 95
2020-10-14 14:00:00 6.4 9 Noroeste 37 Norte 1.4 -- -- 94
2020-10-14 13:00:00 6.9 13 Noroeste 31 Noroeste 1 -- -- 92
2020-10-14 12:00:00 7.8 15 Noroeste 30 Oeste 0 -- -- 89
2020-10-14 11:00:00 6.3 10 Oeste 26 Oeste 0.2 -- -- 95
2020-10-14 10:00:00 5.4 12 Noroeste 23 Oeste 0 -- -- 97
2020-10-14 09:00:00 4.8 11 Noroeste 23 Oeste 1.6 -- -- 98
2020-10-14 08:00:00 4.7 10 Oeste 22 Noroeste 1.6 -- -- 98
2020-10-14 07:00:00 5 10 Noroeste 21 Oeste 2.2 -- -- 97
2020-10-14 06:00:00 5.4 12 Noroeste 24 Oeste 1.2 -- -- 96
2020-10-14 05:00:00 5.8 9 Noroeste 17 Noroeste 0.2 -- -- 96
2020-10-14 04:00:00 5.8 7 Oeste 17 Oeste 0.2 -- -- 96
2020-10-14 03:00:00 5.9 6 Noroeste 18 Oeste 0 -- -- 96
2020-10-14 02:00:00 5.2 9 Noroeste 19 Oeste 0 -- -- 95
2020-10-14 01:00:00 5.3 4 Oeste 20 Oeste 0 -- -- 94
2020-10-14 00:00:00 5.8 2 Oeste 8 Sudoeste 0 -- -- 95
2020-10-13 23:00:00 6.2 3 Sudeste 10 Sur 0 -- -- 96
2020-10-13 22:00:00 6.3 2 Sur 11 Noroeste 0 -- -- 94
2020-10-13 21:00:00 7.6 4 Noroeste 14 Oeste 0 -- -- 94
2020-10-13 20:00:00 8 3 Noroeste 9 Oeste 0 -- -- 94
2020-10-13 19:00:00 8.6 3 Noroeste 26 Nordeste 0 -- -- 94
2020-10-13 18:00:00 9.5 4 Nordeste 20 Nordeste 0 -- -- 91
2020-10-13 17:00:00 11.1 6 Norte 18 Norte 0.8 -- -- 87
2020-10-13 16:00:00 11.7 7 Noroeste 17 Norte 0.8 -- -- 89
2020-10-13 15:00:00 11.5 6 Norte 17 Norte 0 -- -- 87
2020-10-13 14:00:00 11 5 Nordeste 19 Noroeste 0.2 -- -- 88
2020-10-13 13:00:00 11.6 8 Norte 20 Noroeste 0 -- -- 87
2020-10-13 12:00:00 10.9 7 Norte 16 Norte 0 -- -- 94
2020-10-13 11:00:00 9.7 5 Norte 18 Nordeste 0.2 -- -- 96
2020-10-13 10:00:00 -- -- -- -- -- -- -- -- --
2020-10-13 09:00:00 9.4 0 Calma 6 Norte 0.2 -- -- 98
2020-10-13 08:00:00 9.7 0 Calma 9 Nordeste 0.2 -- -- 97
2020-10-13 07:00:00 10.3 5 Noroeste 13 Oeste 0.2 -- -- 98
2020-10-13 06:00:00 10.9 2 Noroeste 14 Norte 0 -- -- 99
2020-10-13 05:00:00 11 6 Noroeste 14 Noroeste 0 -- -- 99
2020-10-13 04:00:00 11.1 6 Noroeste 18 Noroeste 0.4 -- -- 98
2020-10-13 03:00:00 11.6 4 Noroeste 19 Noroeste 1 -- -- 99
2020-10-13 02:00:00 11.4 9 Oeste 22 Noroeste 0.2 -- -- 99
2020-10-13 01:00:00 -- -- -- -- -- -- -- -- --
2020-10-13 00:00:00 11 10 Oeste 30 Oeste 1.2 -- -- 97
2020-10-12 23:00:00 11 13 Oeste 30 Noroeste 0.4 -- -- 96
2020-10-12 22:00:00 10.8 14 Noroeste 27 Noroeste 0.4 -- -- 94
2020-10-12 21:00:00 10.6 8 Oeste 20 Oeste 0 -- -- 84
2020-10-12 20:00:00 10.2 5 Sudoeste 11 Sur 0 -- -- 78
2020-10-12 19:00:00 11.3 5 Oeste 13 Sur 0 -- -- 68
2020-10-12 18:00:00 -- -- -- -- -- -- -- -- --
2020-10-12 17:00:00 12.8 5 Norte 15 Norte 0 -- -- 66
2020-10-12 16:00:00 13 9 Norte 23 Noroeste 0 -- -- 65
2020-10-12 15:00:00 12.8 13 Noroeste 25 Oeste 0 -- -- 65
2020-10-12 14:00:00 11.5 9 Noroeste 21 Noroeste 0 -- -- 71
2020-10-12 13:00:00 10.6 8 Noroeste 17 Noroeste 0 -- -- 76
2020-10-12 12:00:00 8.8 8 Noroeste 19 Noroeste 0 -- -- 85
2020-10-12 11:00:00 7.6 5 Norte 18 Nordeste 0 -- -- 94
2020-10-12 10:00:00 6.6 7 Norte 21 Norte 0 -- -- 96
2020-10-12 09:00:00 6.1 8 Nordeste 20 Noroeste 0 -- -- 95
2020-10-12 08:00:00 5.6 4 Norte 13 Nordeste 0 -- -- 95
2020-10-12 07:00:00 5.6 4 Norte 18 Nordeste 0.2 -- -- 95
2020-10-12 06:00:00 6 8 Nordeste 27 Norte 0.4 -- -- 95
2020-10-12 05:00:00 6.1 6 Norte 19 Norte 0.6 -- -- 97
2020-10-12 04:00:00 -- -- -- -- -- -- -- -- --
2020-10-12 03:00:00 6 10 Norte 23 Noroeste 0.4 -- -- 95
2020-10-12 02:00:00 6.1 6 Noroeste 24 Noroeste 0 -- -- 92
2020-10-12 01:00:00 6.1 9 Noroeste 21 Noroeste 0.2 -- -- 95
2020-10-12 00:00:00 5.4 8 Noroeste 18 Oeste 0 -- -- 94
2020-10-11 23:00:00 6 8 Noroeste 21 Noroeste 0.2 -- -- 96
2020-10-11 22:00:00 6.1 7 Noroeste 22 Norte 0 -- -- 95
2020-10-11 21:00:00 -- -- -- -- -- -- -- -- --
2020-10-11 20:00:00 -- -- -- -- -- -- -- -- --
2020-10-11 19:00:00 7 7 Noroeste 23 Oeste 0 -- -- 90
2020-10-11 18:00:00 7.1 14 Noroeste 26 Noroeste 0.2 -- -- 89
2020-10-11 17:00:00 8.4 8 Norte 24 Oeste 0 -- -- 84
2020-10-11 16:00:00 9.4 14 Noroeste 29 Noroeste 0 -- -- 79
2020-10-11 15:00:00 8.5 12 Noroeste 29 Noroeste 0 -- -- 90
2020-10-11 14:00:00 8 11 Noroeste 28 Noroeste 0.4 -- -- 92
2020-10-11 13:00:00 7.9 10 Norte 22 Noroeste 0 -- -- 93
2020-10-11 12:00:00 6.8 10 Noroeste 18 Noroeste 0.8 -- -- 97
2020-10-11 11:00:00 6.3 9 Noroeste 19 Noroeste 0.4 -- -- 96
2020-10-11 10:00:00 6.1 5 Norte 23 Norte 0 -- -- 94
2020-10-11 09:00:00 5.7 6 Nordeste 19 Nordeste 0 -- -- 95
2020-10-11 08:00:00 5.5 7 Nordeste 22 Nordeste 0 -- -- 91
2020-10-11 07:00:00 5.5 12 Norte 26 Norte 0 -- -- 91
2020-10-11 06:00:00 5.4 7 Norte 32 Noroeste 0 -- -- 91
2020-10-11 05:00:00 5.8 13 Nordeste 31 Norte 0 -- -- 95
2020-10-11 04:00:00 6.1 12 Nordeste 33 Norte 0.2 -- -- 96
2020-10-11 03:00:00 6.3 11 Nordeste 28 Norte 0.2 -- -- 96
2020-10-11 02:00:00 6.6 8 Nordeste 31 Norte 1.2 -- -- 96
2020-10-11 01:00:00 7.1 12 Noroeste 39 Norte 0.6 -- -- 97
2020-10-11 00:00:00 7.1 11 Nordeste 33 Norte 0 -- -- 96
2020-10-10 23:00:00 7.5 12 Norte 29 Norte 0.4 -- -- 96
2020-10-10 22:00:00 8 13 Norte 24 Norte 0.6 -- -- 96
2020-10-10 21:00:00 8.1 2 Norte 9 Nordeste 0.2 -- -- 93
2020-10-10 20:00:00 8.3 6 Norte 15 Nordeste 0 -- -- 89
2020-10-10 19:00:00 8.7 7 Norte 26 Nordeste 0 -- -- 90
2020-10-10 18:00:00 9.3 13 Norte 27 Norte 0 -- -- 88
2020-10-10 17:00:00 10.4 9 Noroeste 23 Norte 0 -- -- 83
2020-10-10 16:00:00 12.5 12 Noroeste 23 Norte 0 -- -- 71
2020-10-10 15:00:00 10 11 Norte 28 Noroeste 0 -- -- 92
2020-10-10 14:00:00 9.7 11 Noroeste 26 Noroeste 0 -- -- 89
2020-10-10 13:00:00 9.2 7 Norte 30 Norte 0 -- -- 92
2020-10-10 12:00:00 8.8 16 Norte 34 Norte 0.2 -- -- 97
2020-10-10 11:00:00 9.5 13 Norte 28 Noroeste 0.6 -- -- 97
2020-10-10 10:00:00 10.4 4 Noroeste 13 Norte 0 -- -- 98
2020-10-10 09:00:00 10.4 3 Noroeste 8 Noroeste 0.6 -- -- 99
2020-10-10 08:00:00 10.3 0 Calma 4 Sudoeste 0.4 -- -- 98
2020-10-10 07:00:00 10.1 0 Calma 5 Nordeste 0 -- -- 97
2020-10-10 06:00:00 10.2 5 Norte 12 Norte 0 -- -- 96
2020-10-10 05:00:00 9.8 0 Calma 11 Norte 0.2 -- -- 97
2020-10-10 04:00:00 9.5 4 Norte 12 Noroeste 0 -- -- 98
2020-10-10 03:00:00 9.2 0 Calma 8 Oeste 0 -- -- 96
2020-10-10 02:00:00 9.9 4 Nordeste 12 Nordeste 0 -- -- 98
2020-10-10 01:00:00 9 0 Calma 4 Noroeste 0 -- -- 95
2020-10-10 00:00:00 10.4 0 Calma 17 Nordeste 0 -- -- 94
2020-10-09 23:00:00 11.4 8 Nordeste 17 Noroeste 0 -- -- 95
2020-10-09 22:00:00 11.9 7 Nordeste 21 Noroeste 0 -- -- 96
2020-10-09 21:00:00 12.4 6 Noroeste 25 Norte 0 -- -- 94
2020-10-09 20:00:00 12.9 8 Noroeste 19 Noroeste 0 -- -- 91
2020-10-09 19:00:00 13.7 7 Nordeste 16 Nordeste 0 -- -- 87
2020-10-09 18:00:00 14.9 8 Nordeste 21 Nordeste 0 -- -- 82
2020-10-09 17:00:00 15 8 Nordeste 19 Nordeste 0 -- -- 83
2020-10-09 16:00:00 15.2 6 Nordeste 18 Este 0 -- -- 84
2020-10-09 15:00:00 16.3 8 Nordeste 17 Este 0 -- -- 81
2020-10-09 14:00:00 17.4 8 Nordeste 14 Nordeste 0 -- -- 78
2020-10-09 13:00:00 14.7 4 Nordeste 8 Este 0 -- -- 89
2020-10-09 12:00:00 12.8 3 Nordeste 10 Norte 0 -- -- 100
2020-10-09 11:00:00 11.8 0 Calma 4 Oeste 0 -- -- 100
2020-10-09 10:00:00 9.2 0 Calma 2 Este 0 -- -- 100
2020-10-09 09:00:00 7.4 0 Calma 4 Nordeste 0 -- -- 98
2020-10-09 08:00:00 7.4 0 Calma 2 Nordeste 0 -- -- 98
2020-10-09 07:00:00 7.9 0 Calma 3 Este 0 -- -- 98
2020-10-09 06:00:00 8.7 0 Calma 3 Este 0 -- -- 98
2020-10-09 05:00:00 8.9 0 Calma 4 Nordeste 0 -- -- 98
2020-10-09 04:00:00 9.3 0 Calma 4 Este 0 -- -- 98
2020-10-09 03:00:00 9.3 0 Calma 3 Nordeste 0 -- -- 98
2020-10-09 02:00:00 9.5 0 Calma 3 Nordeste 0 -- -- 97
2020-10-09 01:00:00 10 0 Calma 3 Este 0 -- -- 96
2020-10-09 00:00:00 10.3 0 Calma 4 Este 0 -- -- 94
2020-10-08 23:00:00 11.2 0 Calma 3 Nordeste 0 -- -- 93
2020-10-08 22:00:00 12.3 0 Calma 5 Nordeste 0 -- -- 91
2020-10-08 21:00:00 14 0 Calma 5 Nordeste 0 -- -- 88
2020-10-08 20:00:00 15.8 4 Este 10 Este 0 -- -- 84
2020-10-08 19:00:00 18.2 2 Oeste 11 Sudoeste 0 -- -- 77
2020-10-08 18:00:00 18.1 5 Sur 12 Sur 0 -- -- 76
2020-10-08 17:00:00 18.8 5 Este 15 Sur 0 -- -- 75
2020-10-08 16:00:00 19.9 5 Sur 16 Sur 0 -- -- 66
2020-10-08 15:00:00 21.2 7 Sur 17 Sudeste 0 -- -- 61
2020-10-08 14:00:00 20.6 4 Sur 18 Sudoeste 0 -- -- 61
2020-10-08 13:00:00 19 8 Sudoeste 18 Sudoeste 0 -- -- 66
2020-10-08 12:00:00 15.3 0 Calma 6 Noroeste 0 -- -- 88
2020-10-08 11:00:00 11.8 0 Calma 6 Noroeste 0 -- -- 98
2020-10-08 10:00:00 10.5 0 Calma 4 Este 0 -- -- 98
2020-10-08 09:00:00 10.2 0 Calma 4 Norte 0 -- -- 96
2020-10-08 08:00:00 11.2 2 Norte 5 Norte 0 -- -- 96
2020-10-08 07:00:00 11.5 3 Sur 6 Sur 0 -- -- 95
2020-10-08 06:00:00 11.9 2 Sudoeste 5 Sudoeste 0 -- -- 95
2020-10-08 05:00:00 12 2 Sudoeste 5 Sur 0 -- -- 95
2020-10-08 04:00:00 12.1 0 Calma 7 Este 0 -- -- 97
2020-10-08 03:00:00 12.2 0 Calma 3 Este 0 -- -- 97
2020-10-08 02:00:00 12.3 0 Calma 4 Este 0 -- -- 96
2020-10-08 01:00:00 12.3 0 Calma 5 Sudeste 0 -- -- 96
2020-10-08 00:00:00 12.4 0 Calma 8 Este 0 -- -- 96
2020-10-07 23:00:00 12.5 2 Este 10 Este 0 -- -- 97
2020-10-07 22:00:00 12.8 4 Este 11 Este 0 -- -- 96
2020-10-07 21:00:00 13.2 5 Este 12 Este 0 -- -- 94
2020-10-07 20:00:00 13.6 5 Nordeste 19 Nordeste 0 -- -- 92
2020-10-07 19:00:00 14.6 7 Nordeste 21 Nordeste 0 -- -- 87
2020-10-07 18:00:00 16.5 5 Nordeste 21 Nordeste 0 -- -- 81
2020-10-07 17:00:00 18.1 9 Nordeste 22 Nordeste 0 -- -- 75
2020-10-07 16:00:00 19 7 Norte 19 Noroeste 0 -- -- 67
2020-10-07 15:00:00 18 4 Nordeste 21 Noroeste 0 -- -- 74
2020-10-07 14:00:00 16.6 13 Noroeste 27 Noroeste 0 -- -- 80
2020-10-07 13:00:00 16.1 8 Oeste 19 Oeste 0 -- -- 81
2020-10-07 12:00:00 15 8 Noroeste 15 Noroeste 0 -- -- 89
2020-10-07 11:00:00 14.1 7 Noroeste 14 Oeste 0 -- -- 94
2020-10-07 10:00:00 14 5 Norte 15 Oeste 0 -- -- 93
2020-10-07 09:00:00 13.6 7 Noroeste 19 Noroeste 0 -- -- 92
2020-10-07 08:00:00 13.8 8 Oeste 26 Oeste 0 -- -- 91
2020-10-07 07:00:00 14 15 Noroeste 28 Noroeste 0 -- -- 90
2020-10-07 06:00:00 14.1 20 Noroeste 36 Oeste 0 -- -- 88
2020-10-07 05:00:00 13.9 18 Noroeste 27 Oeste 0 -- -- 89
2020-10-07 04:00:00 12.5 7 Noroeste 16 Noroeste 0 -- -- 98
2020-10-07 03:00:00 11.7 2 Noroeste 6 Oeste 0 -- -- 98
2020-10-07 02:00:00 11 0 Calma 4 Este 0 -- -- 98
2020-10-07 01:00:00 10.8 0 Calma 5 Este 0 -- -- 97
2020-10-07 00:00:00 11.2 0 Calma 7 Norte 0 -- -- 95
2020-10-06 23:00:00 12.2 2 Este 6 Este 0 -- -- 93
2020-10-06 22:00:00 13.2 0 Calma 4 Sudeste 0 -- -- 92
2020-10-06 21:00:00 14.2 0 Calma 5 Nordeste 0 -- -- 89
2020-10-06 20:00:00 15 0 Calma 3 Este 0 -- -- 87
2020-10-06 19:00:00 16.7 0 Calma 13 Nordeste 0 -- -- 84
2020-10-06 18:00:00 18.3 6 Nordeste 14 Este 0 -- -- 76
2020-10-06 17:00:00 19.6 8 Norte 17 Norte 0 -- -- 68
2020-10-06 16:00:00 17.7 3 Sur 10 Sur 0 -- -- 75
2020-10-06 15:00:00 16.7 4 Sudoeste 19 Sur 0 -- -- 77
2020-10-06 14:00:00 16.7 6 Sudoeste 23 Sur 0 -- -- 79
2020-10-06 13:00:00 16.4 10 Sudoeste 35 Sudoeste 0 -- -- 78
2020-10-06 12:00:00 15.4 12 Sudoeste 37 Sudoeste 0 -- -- 82
2020-10-06 11:00:00 13.5 24 Sudoeste 43 Sudoeste 0 -- -- 88
2020-10-06 10:00:00 12.5 19 Sudoeste 39 Sudoeste 0 -- -- 92
2020-10-06 09:00:00 12 14 Sudoeste 32 Sur 0 -- -- 92
2020-10-06 08:00:00 11.8 20 Sudoeste 35 Oeste 0 -- -- 92
2020-10-06 07:00:00 11.9 4 Oeste 31 Sudoeste 0 -- -- 91
2020-10-06 06:00:00 12.1 19 Sudoeste 37 Sur 0 -- -- 88
2020-10-06 05:00:00 12.1 13 Sudoeste 33 Sur 0 -- -- 87
2020-10-06 04:00:00 12.3 12 Sudoeste 29 Sudoeste 0 -- -- 85
2020-10-06 03:00:00 12.6 8 Sudoeste 25 Sudoeste 0 -- -- 81
2020-10-06 02:00:00 12.5 7 Sudoeste 25 Sur 0 -- -- 74
2020-10-06 01:00:00 12.1 9 Sudoeste 22 Sudoeste 0 -- -- 72
2020-10-06 00:00:00 10.3 5 Oeste 15 Sudoeste 0 -- -- 77
2020-10-05 23:00:00 9.3 0 Calma 12 Oeste 0 -- -- 82
2020-10-05 22:00:00 8.7 3 Nordeste 7 Nordeste 0 -- -- 83
2020-10-05 21:00:00 9.9 0 Calma 5 Sudeste 0 -- -- 77
2020-10-05 20:00:00 11.3 0 Calma 14 Noroeste 0 -- -- 70
2020-10-05 19:00:00 14.4 4 Oeste 21 Oeste 0 -- -- 57
2020-10-05 18:00:00 15.4 10 Sudoeste 27 Oeste 0 -- -- 52
2020-10-05 17:00:00 16.3 12 Oeste 26 Oeste 0 -- -- 49
2020-10-05 16:00:00 15.6 13 Oeste 27 Noroeste 0 -- -- 55
2020-10-05 15:00:00 14.7 14 Oeste 26 Noroeste 0.2 -- -- 57
2020-10-05 14:00:00 13.3 9 Oeste 21 Noroeste 0 -- -- 68
2020-10-05 13:00:00 12.6 7 Oeste 21 Sudoeste 0 -- -- 72
2020-10-05 12:00:00 10.8 9 Sudoeste 24 Sudoeste 0 -- -- 81
2020-10-05 11:00:00 8.4 9 Sudoeste 22 Sudoeste 0 -- -- 89
2020-10-05 10:00:00 7.5 6 Sudoeste 19 Sudoeste 0.2 -- -- 96
2020-10-05 09:00:00 6.1 5 Oeste 17 Oeste 0.2 -- -- 96
2020-10-05 08:00:00 6 7 Oeste 18 Oeste 0.4 -- -- 95
2020-10-05 07:00:00 6.1 10 Oeste 22 Oeste 0.4 -- -- 94
2020-10-05 06:00:00 6.3 10 Oeste 26 Noroeste 0.6 -- -- 92
2020-10-05 05:00:00 6.3 6 Oeste 13 Noroeste 0 -- -- 91
2020-10-05 04:00:00 6.5 4 Noroeste 10 Noroeste 0.2 -- -- 90
2020-10-05 03:00:00 6.7 5 Noroeste 15 Noroeste 0 -- -- 85
2020-10-05 02:00:00 6.6 5 Noroeste 12 Noroeste 0 -- -- 86
2020-10-05 01:00:00 6.7 8 Noroeste 17 Oeste 0 -- -- 83
2020-10-05 00:00:00 7 6 Noroeste 22 Noroeste 0 -- -- 83
2020-10-04 23:00:00 7.1 10 Noroeste 17 Noroeste 0 -- -- 83
2020-10-04 22:00:00 7.3 8 Oeste 21 Oeste 0 -- -- 79
2020-10-04 21:00:00 7.6 13 Noroeste 31 Noroeste 0 -- -- 78
2020-10-04 20:00:00 7.5 12 Noroeste 31 Noroeste 0 -- -- 78
2020-10-04 19:00:00 8.7 17 Noroeste 32 Noroeste 0 -- -- 73
2020-10-04 18:00:00 11.2 14 Noroeste 28 Noroeste 0 -- -- 65
2020-10-04 17:00:00 9.8 10 Noroeste 28 Noroeste 0 -- -- 70
2020-10-04 16:00:00 10.5 12 Noroeste 32 Noroeste 0 -- -- 70
2020-10-04 15:00:00 10.4 20 Noroeste 36 Oeste 0 -- -- 75
2020-10-04 14:00:00 9.5 22 Noroeste 41 Noroeste 0 -- -- 73
2020-10-04 13:00:00 10.1 16 Noroeste 37 Noroeste 0 -- -- 78
2020-10-04 12:00:00 8.8 12 Noroeste 30 Oeste 0.2 -- -- 93
2020-10-04 11:00:00 9.1 9 Oeste 28 Noroeste 0 -- -- 93
2020-10-04 10:00:00 7.6 11 Oeste 23 Oeste 0.2 -- -- 97
2020-10-04 09:00:00 6.8 6 Noroeste 24 Oeste 1.2 -- -- 97
2020-10-04 08:00:00 6.6 12 Noroeste 41 Sudoeste 5.6 -- -- 96
2020-10-04 07:00:00 6.7 6 Sudoeste 23 Oeste 0.4 -- -- 92
2020-10-04 06:00:00 6.8 11 Sur 39 Sudoeste 0 -- -- 89
2020-10-04 05:00:00 6.7 14 Sudoeste 38 Sur 0 -- -- 88
2020-10-04 04:00:00 6.6 12 Sudoeste 29 Sudoeste 0 -- -- 87
2020-10-04 03:00:00 7 14 Oeste 32 Oeste 0 -- -- 86
2020-10-04 02:00:00 6.6 12 Sudoeste 28 Sudoeste 0 -- -- 86
2020-10-04 01:00:00 6.3 8 Sudoeste 21 Sudoeste 0 -- -- 82
2020-10-04 00:00:00 6.8 8 Sudoeste 22 Sudoeste 0 -- -- 77
2020-10-03 23:00:00 5.2 6 Oeste 18 Sudoeste 0 -- -- 86
2020-10-03 22:00:00 5.6 3 Norte 9 Oeste 0 -- -- 87
2020-10-03 21:00:00 6.7 0 Calma 7 Norte 0 -- -- 82
2020-10-03 20:00:00 8.4 3 Noroeste 21 Noroeste 0 -- -- 74
2020-10-03 19:00:00 10.4 11 Noroeste 25 Noroeste 0 -- -- 67
2020-10-03 18:00:00 11.6 13 Noroeste 24 Noroeste 0.2 -- -- 70
2020-10-03 17:00:00 10.4 10 Noroeste 23 Noroeste 0 -- -- 74
2020-10-03 16:00:00 10.4 15 Noroeste 34 Noroeste 0 -- -- 77
2020-10-03 15:00:00 11.1 24 Noroeste 45 Noroeste 0 -- -- 70
2020-10-03 14:00:00 10.3 18 Oeste 42 Noroeste 0 -- -- 70
2020-10-03 13:00:00 8.7 18 Oeste 49 Noroeste 0 -- -- 79
2020-10-03 12:00:00 8.4 24 Oeste 46 Oeste 0 -- -- 79
2020-10-03 11:00:00 6.5 18 Oeste 35 Oeste 0 -- -- 96
2020-10-03 10:00:00 4.4 11 Sudoeste 32 Sudoeste 0.4 -- -- 98
2020-10-03 09:00:00 3.7 12 Oeste 34 Oeste 3 -- -- 98
2020-10-03 08:00:00 3.5 16 Oeste 35 Oeste 6 -- -- 97
2020-10-03 07:00:00 3.8 13 Oeste 39 Oeste 3.6 -- -- 96
2020-10-03 06:00:00 4.2 15 Oeste 33 Oeste 1.6 -- -- 94
2020-10-03 05:00:00 4.4 15 Oeste 35 Oeste 0.4 -- -- 93
2020-10-03 04:00:00 4.5 15 Sudoeste 34 Sudoeste 0.6 -- -- 94
2020-10-03 03:00:00 4.5 11 Oeste 36 Oeste 0.4 -- -- 96
2020-10-03 02:00:00 4.6 15 Oeste 35 Sudoeste 0.4 -- -- 96
2020-10-03 01:00:00 4.4 12 Oeste 33 Oeste 3.8 -- -- 96
2020-10-03 00:00:00 4.3 10 Oeste 37 Sudoeste 2.6 -- -- 94
2020-10-02 23:00:00 4.8 16 Oeste 39 Oeste 1.2 -- -- 88
2020-10-02 22:00:00 6.6 14 Sudoeste 30 Oeste 0 -- -- 70
2020-10-02 21:00:00 6.8 14 Oeste 43 Oeste 0 -- -- 66
2020-10-02 20:00:00 6.6 24 Noroeste 43 Noroeste 0 -- -- 66
2020-10-02 19:00:00 7.1 19 Noroeste 41 Noroeste 0 -- -- 68
2020-10-02 18:00:00 6.7 19 Noroeste 45 Noroeste 0 -- -- 73
2020-10-02 17:00:00 7 27 Noroeste 45 Noroeste 0 -- -- 72
2020-10-02 16:00:00 6.9 17 Noroeste 40 Noroeste 0 -- -- 75
2020-10-02 15:00:00 6.6 18 Noroeste 49 Oeste 0 -- -- 76
2020-10-02 14:00:00 6.4 18 Noroeste 42 Noroeste 0 -- -- 78
2020-10-02 13:00:00 8 21 Noroeste 40 Oeste 0 -- -- 79
2020-10-02 12:00:00 6.3 22 Noroeste 52 Oeste 0 -- -- 84
2020-10-02 11:00:00 5.9 23 Noroeste 46 Noroeste 0 -- -- 87
2020-10-02 10:00:00 5.2 13 Noroeste 44 Oeste 2.4 -- -- 95
2020-10-02 09:00:00 5.7 10 Noroeste 31 Noroeste 2 -- -- 95
2020-10-02 08:00:00 7.4 15 Noroeste 40 Noroeste 1.8 -- -- 95
2020-10-02 07:00:00 8.6 16 Noroeste 39 Noroeste 4.2 -- -- 97
2020-10-02 06:00:00 9.5 18 Noroeste 40 Oeste 8.8 -- -- 97
2020-10-02 05:00:00 10.3 17 Noroeste 38 Noroeste 4 -- -- 96
2020-10-02 04:00:00 10.8 13 Noroeste 50 Sur 0.2 -- -- 89
2020-10-02 03:00:00 11.5 15 Sur 50 Sudoeste 0 -- -- 79
2020-10-02 02:00:00 12 11 Sudoeste 48 Sudoeste 0 -- -- 76
2020-10-02 01:00:00 12.4 23 Sudoeste 68 Sur 0 -- -- 73
2020-10-02 00:00:00 13.2 23 Sudoeste 53 Sur 0 -- -- 68
2020-10-01 23:00:00 13.7 14 Sudoeste 43 Sudoeste 0 -- -- 60
2020-10-01 22:00:00 14.4 10 Sur 51 Sudoeste 0 -- -- 59
2020-10-01 21:00:00 14.6 19 Sur 51 Sur 0 -- -- 57
2020-10-01 20:00:00 14 8 Sur 36 Noroeste 0 -- -- 55
2020-10-01 19:00:00 15.1 10 Sudoeste 32 Sur 0 -- -- 52
2020-10-01 18:00:00 15.9 14 Sur 31 Sur 0 -- -- 55
2020-10-01 17:00:00 16 5 Sur 14 Sur 0 -- -- 62
2020-10-01 16:00:00 15.7 7 Sur 15 Sur 0 -- -- 69
2020-10-01 15:00:00 14.4 2 Norte 10 Sudoeste 0 -- -- 80
2020-10-01 14:00:00 13.2 4 Sudoeste 10 Oeste 0 -- -- 85
2020-10-01 13:00:00 12.3 3 Sudoeste 15 Oeste 0 -- -- 88
2020-10-01 12:00:00 12.6 8 Oeste 16 Oeste 0 -- -- 87
2020-10-01 11:00:00 11.9 6 Sudoeste 13 Sudoeste 0.2 -- -- 94
2020-10-01 10:00:00 11.8 3 Oeste 12 Oeste 0.4 -- -- 94
2020-10-01 09:00:00 11.5 5 Oeste 18 Oeste 0 -- -- 93
2020-10-01 08:00:00 10 0 Calma 4 Noroeste 0 -- -- 92
2020-10-01 07:00:00 9.5 0 Calma 5 Nordeste 0 -- -- 88
2020-10-01 06:00:00 9 0 Calma 6 Oeste 0 -- -- 86
2020-10-01 05:00:00 8.8 3 Nordeste 8 Oeste 0 -- -- 84
2020-10-01 04:00:00 9.5 3 Este 7 Nordeste 0 -- -- 84
2020-10-01 03:00:00 10.2 0 Calma 8 Nordeste 0 -- -- 83
2020-10-01 02:00:00 10.6 0 Calma 12 Sudoeste 0 -- -- 81
2020-10-01 01:00:00 10.7 0 Calma 5 Este 0 -- -- 82
2020-10-01 00:00:00 11.1 2 Noroeste 12 Sudeste 0 -- -- 76